Time;durP1;ratioP1;P1;durP2;ratioP2;P2;SDS_P1;SDS_P2;PMS_P1;PMS_P2;Temp;Humidity;BMP_temperature;BMP_pressure;BME280_temperature;BME280_humidity;BME280_pressure;Samples;Min_cycle;Max_cycle;Signal;HPM_P1;HPM_P2
2023/09/15 00:02:25;;;;;;;;;;;;;;;25.88;40.29;98852.56;5092421;28;19916;-71
2023/09/15 00:04:51;;;;;;;;;;;;;;;25.88;40.27;98855.22;5093055;28;19973;-72
2023/09/15 00:07:17;;;;;;;;;;;;;;;25.84;40.66;98854.84;5074666;28;19916;-71
2023/09/15 00:09:42;;;;;;;;;;;;;;;25.79;40.57;98858.16;5092531;28;19927;-72
2023/09/15 00:12:08;;;;;;;;;;;;;;;25.76;40.46;98857.72;5091678;28;20303;-71
2023/09/15 00:14:34;;;;;;;;;;;;;;;25.72;40.34;98862.69;5091860;28;19970;-70
2023/09/15 00:16:59;;;;;;;;;;;;;;;25.69;40.42;98864.97;5074068;28;19956;-70
2023/09/15 00:19:25;;;;;;;;;;;;;;;25.66;40.52;98866.22;5091681;28;19916;-70
2023/09/15 00:21:51;;;;;;;;;;;;;;;25.64;40.70;98871.78;5091401;28;19920;-70
2023/09/15 00:24:16;;;;;;;;;;;;;;;25.63;40.74;98878.16;5091333;28;19963;-71
2023/09/15 00:26:43;;;;;;;;;;;;;;;25.60;40.83;98881.25;5091158;28;19923;-71
2023/09/15 00:29:08;;;;;;;;;;;;;;;25.56;40.59;98877.34;5092380;28;19916;-71
2023/09/15 00:31:34;;;;;;;;;;;;;;;25.55;40.76;98881.06;5091613;28;19920;-73
2023/09/15 00:33:59;;;;;;;;;;;;;;;25.53;40.74;98884.97;5091372;28;19973;-71
2023/09/15 00:36:24;;;;;;;;;;;;;;;25.52;40.87;98880.66;5090885;28;20023;-70
2023/09/15 00:38:50;;;;;;;;;;;;;;;25.49;40.88;98870.38;5092317;28;20356;-71
2023/09/15 00:41:15;;;;;;;;;;;;;;;25.46;41.00;98875.13;5090854;28;19927;-71
2023/09/15 00:43:41;;;;;;;;;;;;;;;25.44;40.75;98877.19;5091143;28;19923;-71
2023/09/15 00:46:06;;;;;;;;;;;;;;;25.42;40.89;98868.56;5092467;28;19916;-71
2023/09/15 00:48:32;;;;;;;;;;;;;;;25.38;40.87;98874.53;5090916;28;19923;-71
2023/09/15 00:50:57;;;;;;;;;;;;;;;25.36;40.82;98872.06;5091122;28;19923;-72
2023/09/15 00:53:22;;;;;;;;;;;;;;;25.35;40.76;98866.94;5091964;28;19990;-71
2023/09/15 00:55:48;;;;;;;;;;;;;;;25.32;40.82;98868.19;5091904;28;19938;-71
2023/09/15 00:58:13;;;;;;;;;;;;;;;25.26;41.17;98877.81;5091700;28;19916;-71
2023/09/15 01:00:42;;;;;;;;;;;;;;;25.24;40.97;98879.88;5091698;28;19977;-71
2023/09/15 01:03:08;;;;;;;;;;;;;;;25.21;41.08;98871.47;5091629;28;20433;-71
2023/09/15 01:05:33;;;;;;;;;;;;;;;25.19;41.13;98882.38;5091922;28;19920;-71
2023/09/15 01:07:59;;;;;;;;;;;;;;;25.19;41.23;98878.84;5091560;28;19916;-72
2023/09/15 01:10:24;;;;;;;;;;;;;;;25.15;41.24;98874.97;5091405;28;19959;-71
2023/09/15 01:12:51;;;;;;;;;;;;;;;25.10;41.38;98886.28;5074417;28;19916;-72
2023/09/15 01:15:19;;;;;;;;;;;;;;;25.07;41.43;98879.50;5091662;28;19916;-71
2023/09/15 01:17:54;;;;;;;;;;;;;;;25.04;41.37;98877.25;5091651;28;19920;-71
2023/09/15 01:20:22;;;;;;;;;;;;;;;25.01;41.71;98880.31;5092719;28;19923;-71
2023/09/15 01:22:53;;;;;;;;;;;;;;;24.99;41.82;98876.22;5092869;28;19977;-71
2023/09/15 01:25:19;;;;;;;;;;;;;;;24.95;41.95;98883.81;5092025;28;19920;-71
2023/09/15 01:27:56;;;;;;;;;;;;;;;24.93;41.65;98877.88;5092768;28;19920;-71
2023/09/15 01:30:22;;;;;;;;;;;;;;;24.89;42.06;98879.31;5092593;28;20010;-71
2023/09/15 01:32:49;;;;;;;;;;;;;;;24.86;41.88;98871.69;5074837;28;20040;-71
2023/09/15 01:35:15;;;;;;;;;;;;;;;24.85;41.93;98876.22;5074483;28;19920;-71
2023/09/15 01:37:40;;;;;;;;;;;;;;;24.82;41.78;98867.81;5074871;28;19916;-71
2023/09/15 01:40:06;;;;;;;;;;;;;;;24.81;41.77;98871.50;5093023;28;19942;-71
2023/09/15 01:42:32;;;;;;;;;;;;;;;24.80;42.09;98869.88;5091986;28;19916;-71
2023/09/15 01:44:57;;;;;;;;;;;;;;;24.78;42.07;98871.91;5092189;28;20422;-71
2023/09/15 01:47:23;;;;;;;;;;;;;;;24.76;41.90;98868.66;5095387;28;19923;-70
2023/09/15 01:49:49;;;;;;;;;;;;;;;24.76;41.83;98873.97;5095043;28;19916;-71
2023/09/15 01:52:14;;;;;;;;;;;;;;;24.76;41.77;98877.47;5078568;28;19965;-72
2023/09/15 01:54:39;;;;;;;;;;;;;;;24.77;41.70;98875.63;5095086;28;19916;-72
2023/09/15 01:57:04;;;;;;;;;;;;;;;24.77;41.64;98880.97;5095886;28;19962;-72
2023/09/15 01:59:30;;;;;;;;;;;;;;;24.78;41.69;98880.75;5095194;28;20436;-72
2023/09/15 02:01:55;;;;;;;;;;;;;;;24.80;41.52;98870.69;5097409;28;19923;-71
2023/09/15 02:04:20;;;;;;;;;;;;;;;24.80;41.41;98860.03;5095515;28;20351;-71
2023/09/15 02:06:46;;;;;;;;;;;;;;;24.82;41.47;98865.16;5097253;28;20302;-71
2023/09/15 02:09:14;;;;;;;;;;;;;;;24.82;41.42;98871.31;5096539;28;20303;-71
2023/09/15 02:11:40;;;;;;;;;;;;;;;24.82;41.15;98873.16;5096380;28;19927;-71
2023/09/15 02:14:05;;;;;;;;;;;;;;;24.83;41.41;98875.63;5096541;28;19945;-71
2023/09/15 02:16:31;;;;;;;;;;;;;;;24.84;41.47;98876.44;5096457;28;19916;-71
2023/09/15 02:18:56;;;;;;;;;;;;;;;24.83;41.53;98883.63;5097848;28;19916;-70
2023/09/15 02:21:22;;;;;;;;;;;;;;;24.84;41.65;98876.44;5078383;28;19916;-71
2023/09/15 02:23:47;;;;;;;;;;;;;;;24.85;41.79;98880.75;5078463;28;19988;-71
2023/09/15 02:26:12;;;;;;;;;;;;;;;24.85;41.74;98868.22;5095963;28;19916;-72
2023/09/15 02:28:38;;;;;;;;;;;;;;;24.85;41.61;98870.06;5096524;28;19920;-71
2023/09/15 02:31:06;;;;;;;;;;;;;;;24.84;41.59;98884.44;5078008;28;20389;-71
2023/09/15 02:33:32;;;;;;;;;;;;;;;24.84;41.73;98884.44;5094921;28;19916;-71
2023/09/15 02:35:57;;;;;;;;;;;;;;;24.85;41.67;98888.78;5094678;28;19916;-71
2023/09/15 02:38:22;;;;;;;;;;;;;;;24.84;41.58;98895.97;5094567;28;20010;-71
2023/09/15 02:40:48;;;;;;;;;;;;;;;24.84;41.79;98885.28;5094746;28;19969;-71
2023/09/15 02:43:13;;;;;;;;;;;;;;;24.83;41.79;98888.97;5086394;28;20007;-71
2023/09/15 02:45:38;;;;;;;;;;;;;;;24.83;41.62;98890.84;5075221;28;19926;-71
2023/09/15 02:48:04;;;;;;;;;;;;;;;24.83;41.67;98890.84;5071953;28;19920;-72
2023/09/15 02:50:29;;;;;;;;;;;;;;;24.82;41.77;98894.53;5073505;28;19981;-71
2023/09/15 02:52:55;;;;;;;;;;;;;;;24.82;41.67;98895.31;5107842;28;19942;-71
2023/09/15 02:55:21;;;;;;;;;;;;;;;24.82;41.83;98897.19;5075824;28;19966;-71
2023/09/15 02:57:46;;;;;;;;;;;;;;;24.82;41.78;98902.53;5107296;28;20446;-71
2023/09/15 03:00:13;;;;;;;;;;;;;;;24.81;41.78;98899.03;5090718;28;19967;-71
2023/09/15 03:02:40;;;;;;;;;;;;;;;24.82;41.83;98897.19;5107017;28;20370;-71
2023/09/15 03:05:06;;;;;;;;;;;;;;;24.82;41.74;98905.19;5075082;28;19917;-71
2023/09/15 03:07:31;;;;;;;;;;;;;;;24.82;41.84;98905.19;5075121;28;19963;-70
2023/09/15 03:09:57;;;;;;;;;;;;;;;24.80;41.65;98910.75;5074709;28;20422;-70
2023/09/15 03:12:22;;;;;;;;;;;;;;;24.81;41.81;98911.56;5107771;28;20356;-70
2023/09/15 03:14:49;;;;;;;;;;;;;;;24.80;41.62;98908.06;5107601;28;19916;-71
2023/09/15 03:17:15;;;;;;;;;;;;;;;24.80;41.49;98916.06;5090243;28;20384;-71
2023/09/15 03:19:40;;;;;;;;;;;;;;;24.80;41.36;98917.94;5073329;28;19917;-71
2023/09/15 03:22:05;;;;;;;;;;;;;;;24.79;41.50;98901.06;5074219;28;19916;-71
2023/09/15 03:24:30;;;;;;;;;;;;;;;24.79;41.65;98897.59;5073217;28;19924;-71
2023/09/15 03:26:56;;;;;;;;;;;;;;;24.77;41.61;98897.00;5106941;28;19969;-71
2023/09/15 03:29:21;;;;;;;;;;;;;;;24.76;41.54;98890.00;5073670;28;19921;-70
2023/09/15 03:31:46;;;;;;;;;;;;;;;24.75;42.62;98891.84;5073840;28;19917;-71
2023/09/15 03:34:12;;;;;;;;;;;;;;;24.83;43.30;98896.97;5074751;28;19916;-73
2023/09/15 03:36:37;;;;;;;;;;;;;;;24.86;42.63;98903.75;5074554;28;19917;-72
2023/09/15 03:39:03;;;;;;;;;;;;;;;24.79;42.45;98906.41;5072982;28;19917;-72
2023/09/15 03:41:29;;;;;;;;;;;;;;;24.72;42.47;98919.78;5074264;28;19923;-72
2023/09/15 03:43:55;;;;;;;;;;;;;;;24.77;43.36;98915.69;5089637;28;19920;-68
2023/09/15 03:46:20;;;;;;;;;;;;;;;24.94;42.83;98914.25;5074181;28;19938;-69
2023/09/15 03:48:46;;;;;;;;;;;;;;;25.06;42.92;98914.41;5072861;28;19916;-68
2023/09/15 03:51:11;;;;;;;;;;;;;;;25.15;42.70;98913.19;5072762;28;19923;-68
2023/09/15 03:53:37;;;;;;;;;;;;;;;25.22;42.79;98908.66;5072685;28;19916;-71
2023/09/15 03:56:03;;;;;;;;;;;;;;;25.23;43.23;98922.84;5072644;28;19920;-86
2023/09/15 03:58:28;;;;;;;;;;;;;;;25.17;42.56;98919.13;5072473;28;19922;-68
2023/09/15 04:00:54;;;;;;;;;;;;;;;25.21;41.89;98923.03;5073441;28;20019;-68
2023/09/15 04:03:20;;;;;;;;;;;;;;;25.24;41.58;98925.31;5074330;28;19924;-71
2023/09/15 04:05:46;;;;;;;;;;;;;;;25.28;41.04;98923.06;5074054;28;19916;-68
2023/09/15 04:08:11;;;;;;;;;;;;;;;25.31;41.08;98922.63;5106456;28;19926;-67
2023/09/15 04:10:38;;;;;;;;;;;;;;;25.35;41.27;98918.53;5071590;28;19935;-67
2023/09/15 04:13:03;;;;;;;;;;;;;;;25.44;41.78;98913.78;5072310;28;19922;-69
2023/09/15 04:15:29;;;;;;;;;;;;;;;25.50;42.02;98920.94;5106237;28;19916;-68
2023/09/15 04:17:55;;;;;;;;;;;;;;;25.57;41.98;98927.13;5073309;28;19921;-67
2023/09/15 04:20:20;;;;;;;;;;;;;;;25.79;40.75;98927.66;5073222;28;19924;-68
2023/09/15 04:22:46;;;;;;;;;;;;;;;25.87;40.57;98933.78;5105219;28;19917;-66
2023/09/15 04:25:11;;;;;;;;;;;;;;;25.90;40.20;98941.41;5072693;28;19923;-68
2023/09/15 04:27:36;;;;;;;;;;;;;;;25.84;40.22;98940.41;5073082;28;19920;-68
2023/09/15 04:30:02;;;;;;;;;;;;;;;25.72;39.98;98939.41;5073886;28;19925;-68
2023/09/15 04:32:28;;;;;;;;;;;;;;;25.67;40.20;98948.06;5106097;28;19939;-69
2023/09/15 04:34:53;;;;;;;;;;;;;;;25.65;39.93;98942.13;5073154;28;19951;-70
2023/09/15 04:37:19;;;;;;;;;;;;;;;25.66;39.99;98951.75;5088520;28;19917;-69
2023/09/15 04:39:44;;;;;;;;;;;;;;;25.67;39.85;98947.25;5105664;28;19985;-69
2023/09/15 04:42:12;;;;;;;;;;;;;;;25.67;39.74;98949.91;5073731;28;20042;-76
2023/09/15 04:44:37;;;;;;;;;;;;;;;25.69;39.93;98961.22;5105015;28;19916;-71
2023/09/15 04:47:03;;;;;;;;;;;;;;;25.72;39.90;98958.94;5071399;28;19924;-70
2023/09/15 04:49:28;;;;;;;;;;;;;;;25.78;39.86;98963.44;5108894;28;19917;-70
2023/09/15 04:51:54;;;;;;;;;;;;;;;25.80;39.82;98966.72;5110213;28;19916;-72
2023/09/15 04:54:19;;;;;;;;;;;;;;;25.88;39.62;98968.34;5109979;28;20011;-73
2023/09/15 04:56:44;;;;;;;;;;;;;;;26.01;39.17;98964.81;5078229;28;20303;-70
2023/09/15 04:59:15;;;;;;;;;;;;;;;26.79;37.72;98971.03;5077533;28;19921;-71
2023/09/15 05:01:46;;;;;;;;;;;;;;;27.61;36.58;98965.59;5076185;28;20288;-70
2023/09/15 05:04:13;;;;;;;;;;;;;;;28.58;34.76;98977.47;5074446;28;20002;-72
2023/09/15 05:06:39;;;;;;;;;;;;;;;29.37;33.25;98978.09;5071298;28;19924;-70
2023/09/15 05:09:05;;;;;;;;;;;;;;;30.06;32.48;98972.06;5071104;28;19954;-71
2023/09/15 05:11:31;;;;;;;;;;;;;;;30.66;31.30;98978.84;5072925;28;19921;-72
2023/09/15 05:13:56;;;;;;;;;;;;;;;31.26;30.23;98978.47;5072775;28;19923;-72
2023/09/15 05:16:22;;;;;;;;;;;;;;;31.69;29.57;98968.84;5072980;28;20421;-72
2023/09/15 05:18:47;;;;;;;;;;;;;;;32.10;28.74;98977.47;5072828;28;20388;-72
2023/09/15 05:21:13;;;;;;;;;;;;;;;32.36;28.41;98980.50;5072655;28;19976;-72
2023/09/15 05:23:38;;;;;;;;;;;;;;;32.35;28.06;98982.34;5071667;28;19920;-73
2023/09/15 05:26:03;;;;;;;;;;;;;;;31.62;29.12;98981.72;5071461;28;19920;-73
2023/09/15 05:28:29;;;;;;;;;;;;;;;31.15;29.96;98985.59;5072587;28;19917;-73
2023/09/15 05:30:59;;;;;;;;;;;;;;;30.75;30.28;98989.22;5071312;28;20415;-73
2023/09/15 05:33:24;;;;;;;;;;;;;;;30.42;31.36;98986.22;5071671;28;19917;-72
2023/09/15 05:35:50;;;;;;;;;;;;;;;30.19;32.31;98989.81;5054378;28;20289;-72
2023/09/15 05:38:16;;;;;;;;;;;;;;;30.01;32.61;98979.19;5071434;28;20002;-73
2023/09/15 05:40:41;;;;;;;;;;;;;;;29.92;32.67;98981.44;5071413;28;19971;-74
2023/09/15 05:43:08;;;;;;;;;;;;;;;30.45;31.33;98988.44;5072413;28;19967;-72
2023/09/15 05:45:33;;;;;;;;;;;;;;;31.24;30.42;98991.41;5071849;28;19923;-73
2023/09/15 05:47:58;;;;;;;;;;;;;;;32.01;29.28;98989.78;5072463;28;19916;-72
2023/09/15 05:50:24;;;;;;;;;;;;;;;32.69;28.36;98987.59;5072690;28;20299;-71
2023/09/15 05:52:49;;;;;;;;;;;;;;;33.15;28.15;98997.97;5072218;28;20057;-72
2023/09/15 05:55:15;;;;;;;;;;;;;;;32.82;28.50;98995.28;5071328;28;19928;-72
2023/09/15 05:57:40;;;;;;;;;;;;;;;33.67;27.02;98999.16;5072347;28;20003;-72
2023/09/15 06:00:06;;;;;;;;;;;;;;;34.33;25.81;98990.53;5071849;28;19917;-72
2023/09/15 06:02:31;;;;;;;;;;;;;;;34.77;25.17;98991.97;5072429;28;20015;-72
2023/09/15 06:04:57;;;;;;;;;;;;;;;35.22;24.85;98993.06;5072199;28;20335;-71
2023/09/15 06:07:22;;;;;;;;;;;;;;;35.63;24.08;98998.41;5072267;28;20299;-72
2023/09/15 06:09:47;;;;;;;;;;;;;;;35.96;23.47;98988.03;5072551;28;19920;-72
2023/09/15 06:12:12;;;;;;;;;;;;;;;36.15;23.33;98992.78;5070940;28;20426;-72
2023/09/15 06:14:38;;;;;;;;;;;;;;;35.67;23.75;98998.69;5071990;28;20375;-72
2023/09/15 06:17:03;;;;;;;;;;;;;;;36.01;23.36;99000.75;5072126;28;19917;-73
2023/09/15 06:19:29;;;;;;;;;;;;;;;36.40;22.51;98998.13;5072221;28;19921;-72
2023/09/15 06:21:54;;;;;;;;;;;;;;;36.50;22.39;98991.81;5072150;28;19920;-71
2023/09/15 06:24:19;;;;;;;;;;;;;;;36.79;21.83;99003.88;5071140;28;19939;-72
2023/09/15 06:26:45;;;;;;;;;;;;;;;36.49;22.35;99001.06;5071986;28;19927;-70
2023/09/15 06:29:12;;;;;;;;;;;;;;;36.32;22.39;99009.59;5070390;28;19928;-71
2023/09/15 06:31:37;;;;;;;;;;;;;;;36.79;21.59;99015.56;5072054;28;19916;-72
2023/09/15 06:34:03;;;;;;;;;;;;;;;37.06;21.73;99019.72;5074370;28;19916;-72
2023/09/15 06:36:28;;;;;;;;;;;;;;;36.89;21.60;99015.47;5075503;28;20011;-72
2023/09/15 06:38:53;;;;;;;;;;;;;;;36.49;22.22;99019.28;5074367;28;20401;-71
2023/09/15 06:41:19;;;;;;;;;;;;;;;36.16;22.29;99021.59;5057518;28;19952;-72
2023/09/15 06:43:44;;;;;;;;;;;;;;;35.84;22.08;99022.81;5075222;28;19917;-71
2023/09/15 06:46:10;;;;;;;;;;;;;;;35.76;22.24;99018.78;5075354;28;19917;-72
2023/09/15 06:48:36;;;;;;;;;;;;;;;36.09;21.96;99030.06;5074522;28;20007;-72
2023/09/15 06:51:01;;;;;;;;;;;;;;;36.47;21.42;99016.00;5075268;28;20015;-73
2023/09/15 06:53:26;;;;;;;;;;;;;;;36.81;21.24;99024.25;5074228;28;19939;-72
2023/09/15 06:55:55;;;;;;;;;;;;;;;37.23;21.22;99020.13;5074390;28;20363;-72
2023/09/15 06:58:21;;;;;;;;;;;;;;;37.66;20.84;99019.41;5074993;28;20407;-72
2023/09/15 07:00:46;;;;;;;;;;;;;;;37.47;20.90;99022.88;5074991;28;19917;-72
2023/09/15 07:03:12;;;;;;;;;;;;;;;37.16;21.19;99021.53;5075007;28;19916;-75
2023/09/15 07:05:40;;;;;;;;;;;;;;;36.99;21.16;99032.81;5073959;28;19917;-72
2023/09/15 07:08:05;;;;;;;;;;;;;;;37.33;20.94;99029.28;5073686;28;19920;-73
2023/09/15 07:10:31;;;;;;;;;;;;;;;37.58;20.29;99023.59;5074665;28;19924;-73
2023/09/15 07:12:56;;;;;;;;;;;;;;;37.58;20.45;99020.06;5056970;28;19924;-73
2023/09/15 07:15:21;;;;;;;;;;;;;;;37.66;20.88;99025.66;5074550;28;20346;-74
2023/09/15 07:17:46;;;;;;;;;;;;;;;37.83;20.53;99019.78;5074588;28;20011;-74
2023/09/15 07:20:12;;;;;;;;;;;;;;;38.19;20.39;99024.84;5074541;28;19923;-72
2023/09/15 07:22:37;;;;;;;;;;;;;;;38.44;19.98;99028.28;5074481;28;19956;-71
2023/09/15 07:25:03;;;;;;;;;;;;;;;38.39;20.13;99019.41;5072912;28;20117;-72
2023/09/15 07:27:28;;;;;;;;;;;;;;;38.00;20.21;99023.94;5074706;28;19974;-72
2023/09/15 07:29:53;;;;;;;;;;;;;;;38.33;19.91;99021.38;5074320;28;20015;-73
2023/09/15 07:32:19;;;;;;;;;;;;;;;38.61;19.85;99016.06;5074445;28;20318;-73
2023/09/15 07:34:44;;;;;;;;;;;;;;;38.89;19.69;99019.75;5073516;28;19916;-73
2023/09/15 07:37:10;;;;;;;;;;;;;;;39.17;19.76;99023.41;5072965;28;20295;-73
2023/09/15 07:39:35;;;;;;;;;;;;;;;39.13;19.79;99018.84;5073027;28;19927;-72
2023/09/15 07:42:00;;;;;;;;;;;;;;;39.00;19.67;99021.19;5074166;28;20453;-72
2023/09/15 07:44:27;;;;;;;;;;;;;;;38.77;19.86;99016.66;5073962;28;19975;-73
2023/09/15 07:46:52;;;;;;;;;;;;;;;38.58;19.86;99014.72;5073995;28;19924;-72
2023/09/15 07:49:18;;;;;;;;;;;;;;;38.42;20.26;99018.81;5074181;28;19916;-73
2023/09/15 07:51:43;;;;;;;;;;;;;;;38.35;20.36;99016.41;5072648;28;19916;-73
2023/09/15 07:54:09;;;;;;;;;;;;;;;38.20;20.57;99009.28;5072485;28;19916;-72
2023/09/15 07:56:34;;;;;;;;;;;;;;;38.50;20.12;99010.75;5074353;28;20006;-72
2023/09/15 07:58:59;;;;;;;;;;;;;;;38.63;19.90;99014.69;5073735;28;20010;-71
2023/09/15 08:01:25;;;;;;;;;;;;;;;39.02;19.69;99010.78;5074114;28;19939;-71
2023/09/15 08:03:50;;;;;;;;;;;;;;;39.19;19.38;99007.53;5073642;28;19916;-72
2023/09/15 08:06:15;;;;;;;;;;;;;;;39.43;19.42;99003.81;5072402;28;19917;-72
2023/09/15 08:08:42;;;;;;;;;;;;;;;39.64;19.35;99007.00;5072282;28;19920;-72
2023/09/15 08:11:07;;;;;;;;;;;;;;;39.44;19.55;99016.34;5073726;28;19924;-72
2023/09/15 08:13:33;;;;;;;;;;;;;;;39.07;19.89;99007.16;5073939;28;20267;-73
2023/09/15 08:15:58;;;;;;;;;;;;;;;38.77;20.02;99001.09;5073797;28;19917;-72
2023/09/15 08:18:23;;;;;;;;;;;;;;;38.52;20.13;99005.00;5073525;28;19917;-72
2023/09/15 08:20:49;;;;;;;;;;;;;;;38.45;20.41;99008.09;5055437;28;20015;-71
2023/09/15 08:23:14;;;;;;;;;;;;;;;38.79;19.67;98998.88;5073258;28;19963;-71
2023/09/15 08:25:39;;;;;;;;;;;;;;;39.25;19.40;98997.31;5072348;28;19923;-73
2023/09/15 08:28:06;;;;;;;;;;;;;;;39.69;19.01;99001.41;5073694;28;19920;-73
2023/09/15 08:30:33;;;;;;;;;;;;;;;39.98;18.69;99001.13;5071984;28;20388;-71
2023/09/15 08:32:58;;;;;;;;;;;;;;;40.26;18.57;99005.72;5072203;28;19917;-72
2023/09/15 08:35:24;;;;;;;;;;;;;;;40.53;18.59;99002.13;5073360;28;19917;-72
2023/09/15 08:37:49;;;;;;;;;;;;;;;40.80;18.02;98993.00;5055212;28;19991;-72
2023/09/15 08:40:14;;;;;;;;;;;;;;;41.00;18.38;98997.16;5055153;28;19977;-72
2023/09/15 08:42:39;;;;;;;;;;;;;;;41.21;18.03;99010.31;5073248;28;19924;-73
2023/09/15 08:45:05;;;;;;;;;;;;;;;41.28;17.63;98996.19;5073093;28;19970;-73
2023/09/15 08:47:34;;;;;;;;;;;;;;;41.44;17.45;98996.63;5072964;28;20002;-71
2023/09/15 08:50:00;;;;;;;;;;;;;;;41.52;17.59;98993.91;5072829;28;19971;-72
2023/09/15 08:52:25;;;;;;;;;;;;;;;41.64;17.74;98993.31;5072951;28;20308;-71
2023/09/15 08:54:51;;;;;;;;;;;;;;;41.72;17.71;98994.47;5071821;28;19924;-72
2023/09/15 08:57:16;;;;;;;;;;;;;;;41.81;17.47;98992.56;5071200;28;20346;-71
2023/09/15 08:59:41;;;;;;;;;;;;;;;41.87;17.30;98982.25;5072825;28;19922;-70
2023/09/15 09:02:08;;;;;;;;;;;;;;;41.93;17.10;98992.75;5072886;28;19974;-72
2023/09/15 09:04:34;;;;;;;;;;;;;;;41.90;17.21;98982.44;5071498;28;19917;-72
2023/09/15 09:55:34;;;;;;;;;;;;;;;39.37;19.16;98973.06;5072134;28;19946;-73
2023/09/15 09:58:04;;;;;;;;;;;;;;;39.26;19.00;98966.19;5072686;28;19920;-78
2023/09/15 10:00:32;;;;;;;;;;;;;;;39.25;19.12;98968.09;5072354;28;19917;-75
2023/09/15 10:02:57;;;;;;;;;;;;;;;39.34;19.00;98970.13;5072351;28;19920;-72
2023/09/15 10:05:23;;;;;;;;;;;;;;;39.42;19.09;98974.88;5072001;28;19941;-72
2023/09/15 10:07:48;;;;;;;;;;;;;;;39.26;19.10;98971.63;5070679;28;20315;-72
2023/09/15 10:10:13;;;;;;;;;;;;;;;39.13;19.33;98969.72;5075837;28;19916;-70
2023/09/15 10:12:39;;;;;;;;;;;;;;;39.14;19.10;98958.50;5074745;28;20454;-71
2023/09/15 10:15:07;;;;;;;;;;;;;;;38.91;19.24;98962.94;5075815;28;20387;-72
2023/09/15 10:17:32;;;;;;;;;;;;;;;38.77;19.45;98959.38;5058077;28;19917;-72
2023/09/15 10:19:58;;;;;;;;;;;;;;;38.64;19.86;98961.75;5074468;28;20356;-71
2023/09/15 10:22:23;;;;;;;;;;;;;;;38.48;19.83;98957.63;5075743;28;19923;-73
2023/09/15 10:24:53;;;;;;;;;;;;;;;38.33;20.25;98964.94;5075492;28;20295;-74
2023/09/15 10:27:19;;;;;;;;;;;;;;;38.13;20.21;98965.19;5058028;28;20276;-75
2023/09/15 10:29:44;;;;;;;;;;;;;;;37.90;20.36;98959.50;5074163;28;19939;-73
2023/09/15 10:32:09;;;;;;;;;;;;;;;37.74;20.46;98950.72;5075439;28;20288;-72
2023/09/15 10:34:35;;;;;;;;;;;;;;;37.69;20.62;98955.44;5075826;28;20020;-73
2023/09/15 10:37:01;;;;;;;;;;;;;;;37.53;21.00;98952.84;5073876;28;19974;-72
2023/09/15 10:39:33;;;;;;;;;;;;;;;37.52;21.11;98950.41;5073981;28;20438;-72
2023/09/15 10:42:04;;;;;;;;;;;;;;;37.44;21.05;98944.50;5075226;28;19917;-72
2023/09/15 10:44:29;;;;;;;;;;;;;;;37.40;20.91;98948.91;5073881;28;19920;-74
2023/09/15 10:46:55;;;;;;;;;;;;;;;37.35;20.86;98943.50;5074037;28;20379;-73
2023/09/15 10:49:21;;;;;;;;;;;;;;;37.22;21.01;98945.00;5075100;28;19938;-72
2023/09/15 10:51:56;;;;;;;;;;;;;;;37.16;21.22;98948.06;5074007;28;19917;-74
2023/09/15 10:54:23;;;;;;;;;;;;;;;37.05;21.15;98931.00;5073842;28;19923;-71
2023/09/15 10:56:48;;;;;;;;;;;;;;;36.99;21.17;98937.59;5073815;28;20043;-72
2023/09/15 10:59:16;;;;;;;;;;;;;;;36.91;21.44;98934.41;5073727;28;19960;-73
2023/09/15 11:01:43;;;;;;;;;;;;;;;36.81;21.58;98930.97;5074851;28;19917;-72
2023/09/15 11:04:10;;;;;;;;;;;;;;;36.72;21.33;98922.56;5073985;28;19964;-72
2023/09/15 11:06:35;;;;;;;;;;;;;;;36.57;21.83;98923.53;5075016;28;19927;-73
2023/09/15 11:09:00;;;;;;;;;;;;;;;36.46;21.73;98917.34;5073424;28;20011;-73
2023/09/15 11:11:26;;;;;;;;;;;;;;;36.33;21.86;98915.28;5073577;28;19921;-75
2023/09/15 11:13:51;;;;;;;;;;;;;;;36.27;21.94;98910.97;5074915;28;19916;-72
2023/09/15 11:16:17;;;;;;;;;;;;;;;36.16;21.98;98907.50;5074573;28;19916;-76
2023/09/15 11:18:44;;;;;;;;;;;;;;;36.04;22.15;98913.25;5073127;28;20011;-73
2023/09/15 11:21:12;;;;;;;;;;;;;;;35.92;22.54;98907.38;5073223;28;19923;-75
2023/09/15 11:23:37;;;;;;;;;;;;;;;35.79;22.75;98906.09;5073064;28;19916;-74
2023/09/15 11:26:03;;;;;;;;;;;;;;;35.73;22.49;98902.53;5073340;28;20382;-76
2023/09/15 11:28:34;;;;;;;;;;;;;;;35.62;22.63;98900.97;5073076;28;19916;-74
2023/09/15 11:31:00;;;;;;;;;;;;;;;35.51;22.69;98898.28;5074446;28;19917;-75
2023/09/15 11:33:25;;;;;;;;;;;;;;;35.45;22.70;98893.97;5074720;28;19916;-74
2023/09/15 11:35:51;;;;;;;;;;;;;;;35.31;23.14;98890.22;5073344;28;19917;-74
2023/09/15 11:38:16;;;;;;;;;;;;;;;35.26;23.14;98896.47;5072986;28;20332;-74
2023/09/15 11:40:45;;;;;;;;;;;;;;;35.24;23.00;98900.53;5073317;28;19916;-73
2023/09/15 11:43:10;;;;;;;;;;;;;;;35.18;22.64;98896.19;5073037;28;19920;-73
2023/09/15 11:45:36;;;;;;;;;;;;;;;35.12;22.58;98889.97;5074423;28;20294;-74
2023/09/15 11:48:03;;;;;;;;;;;;;;;35.11;22.74;98891.88;5072812;28;19916;-74
2023/09/15 11:50:29;;;;;;;;;;;;;;;35.03;22.59;98884.31;5073009;28;20384;-74
2023/09/15 11:52:54;;;;;;;;;;;;;;;34.98;22.46;98884.28;5072690;28;19924;-70
2023/09/15 11:55:20;;;;;;;;;;;;;;;34.91;22.67;98887.28;5074356;28;19924;-69
2023/09/15 11:57:45;;;;;;;;;;;;;;;34.82;22.40;98878.09;5073990;28;19942;-70
2023/09/15 12:00:13;;;;;;;;;;;;;;;34.72;22.36;98875.38;5072424;28;19920;-73
2023/09/15 12:02:38;;;;;;;;;;;;;;;34.66;22.85;98863.72;5072153;28;19916;-74
2023/09/15 12:05:05;;;;;;;;;;;;;;;34.64;22.92;98870.50;5055811;28;19920;-74
2023/09/15 12:07:30;;;;;;;;;;;;;;;34.60;22.75;98868.34;5074001;28;19916;-73
2023/09/15 12:09:55;;;;;;;;;;;;;;;34.57;22.75;98866.16;5072535;28;20482;-74
2023/09/15 12:12:21;;;;;;;;;;;;;;;34.53;22.88;98864.28;5072528;28;19920;-76
2023/09/15 12:14:46;;;;;;;;;;;;;;;34.44;23.25;98855.84;5073782;28;19916;-73
2023/09/15 12:17:12;;;;;;;;;;;;;;;34.37;23.14;98856.13;5055384;28;19917;-75
2023/09/15 12:19:37;;;;;;;;;;;;;;;34.33;23.19;98857.78;5074041;28;19916;-75
2023/09/15 12:22:03;;;;;;;;;;;;;;;34.33;23.69;98859.66;5072289;28;19938;-74
2023/09/15 12:24:28;;;;;;;;;;;;;;;34.29;23.16;98858.59;5073431;28;20391;-75
2023/09/15 12:26:54;;;;;;;;;;;;;;;34.24;23.75;98856.69;5072377;28;19940;-72
2023/09/15 12:29:21;;;;;;;;;;;;;;;34.23;23.40;98849.63;5073395;28;19916;-72
2023/09/15 12:31:47;;;;;;;;;;;;;;;34.20;23.32;98850.13;5072795;28;19916;-72
2023/09/15 12:34:19;;;;;;;;;;;;;;;34.16;23.83;98849.88;5073490;28;19916;-71
2023/09/15 12:36:45;;;;;;;;;;;;;;;34.12;23.17;98843.34;5073996;28;19978;-70
2023/09/15 12:39:10;;;;;;;;;;;;;;;34.10;23.87;98842.81;5072143;28;19917;-71
2023/09/15 12:41:35;;;;;;;;;;;;;;;34.08;23.40;98843.09;5073435;28;19923;-72
2023/09/15 12:44:01;;;;;;;;;;;;;;;34.06;23.63;98845.25;5072143;28;20380;-72
2023/09/15 12:46:26;;;;;;;;;;;;;;;34.05;23.15;98849.03;5073719;28;19916;-73
2023/09/15 12:48:51;;;;;;;;;;;;;;;34.02;23.70;98846.06;5072078;28;19917;-71
2023/09/15 12:51:17;;;;;;;;;;;;;;;34.01;22.95;98834.41;5072114;28;19939;-73
2023/09/15 12:53:42;;;;;;;;;;;;;;;33.98;23.63;98828.72;5073462;28;19916;-73
2023/09/15 12:56:07;;;;;;;;;;;;;;;33.95;23.19;98824.66;5073296;28;20284;-71
2023/09/15 12:58:33;;;;;;;;;;;;;;;33.93;23.58;98824.09;5071767;28;19966;-70
2023/09/15 13:00:58;;;;;;;;;;;;;;;33.89;23.27;98823.84;5072393;28;19948;-74
2023/09/15 13:03:23;;;;;;;;;;;;;;;33.85;23.90;98820.03;5072172;28;19963;-73
2023/09/15 13:05:49;;;;;;;;;;;;;;;33.84;23.69;98821.13;5072194;28;20024;-74
2023/09/15 13:08:14;;;;;;;;;;;;;;;33.88;24.04;98818.69;5071722;28;20404;-73
2023/09/15 13:10:40;;;;;;;;;;;;;;;33.88;23.74;98821.41;5073053;28;20386;-73
2023/09/15 13:13:06;;;;;;;;;;;;;;;33.87;23.57;98808.94;5072923;28;19993;-72
2023/09/15 13:15:31;;;;;;;;;;;;;;;33.82;23.49;98807.03;5073208;28;19916;-73
2023/09/15 13:17:56;;;;;;;;;;;;;;;33.83;23.58;98807.88;5072916;28;20299;-74
2023/09/15 13:20:22;;;;;;;;;;;;;;;33.80;23.79;98802.97;5072903;28;19939;-72
2023/09/15 13:22:47;;;;;;;;;;;;;;;33.78;23.71;98800.53;5072628;28;19942;-75
2023/09/15 13:25:13;;;;;;;;;;;;;;;33.76;23.57;98801.88;5072857;28;19920;-70
2023/09/15 13:27:42;;;;;;;;;;;;;;;33.74;23.66;98799.44;5072488;28;19924;-71
2023/09/15 13:30:11;;;;;;;;;;;;;;;33.72;23.64;98796.19;5072758;28;19917;-71